createdAt,value
2022-07-31T00:00:28.936Z,100812.09
2022-07-31T00:02:55.762Z,100817.69
2022-07-31T00:05:23.470Z,100817.59
2022-07-31T00:07:50.260Z,100819.63
2022-07-31T00:10:17.040Z,100817.38
2022-07-31T00:12:43.540Z,100822.16
2022-07-31T00:15:11.214Z,100814.41
2022-07-31T00:17:39.353Z,100821.91
2022-07-31T00:20:06.921Z,100825.16
2022-07-31T00:22:33.376Z,100820.88
2022-07-31T00:24:59.807Z,100828.50
2022-07-31T00:27:26.292Z,100827.22
2022-07-31T00:29:52.747Z,100832.00
2022-07-31T00:32:19.279Z,100835.59
2022-07-31T00:34:45.737Z,100822.34
2022-07-31T00:37:12.200Z,100824.00
2022-07-31T00:39:38.664Z,100831.94
2022-07-31T00:42:05.829Z,100826.03
2022-07-31T00:44:32.318Z,100818.59
2022-07-31T00:46:58.855Z,100827.88
2022-07-31T00:49:27.434Z,100828.47
2022-07-31T00:52:04.496Z,100821.34
2022-07-31T00:54:31.051Z,100823.25
2022-07-31T00:56:57.518Z,100821.06
2022-07-31T00:59:24.939Z,100821.53
2022-07-31T01:01:51.749Z,100826.53
2022-07-31T01:04:19.151Z,100819.09
2022-07-31T01:06:46.976Z,100821.66
2022-07-31T01:09:16.728Z,100823.59
2022-07-31T01:12:01.485Z,100814.75
2022-07-31T01:14:33.845Z,100821.03
2022-07-31T01:17:02.168Z,100821.13
2022-07-31T01:19:43.685Z,100826.16
2022-07-31T01:22:41.070Z,100821.59
2022-07-31T01:25:29.312Z,100828.13
2022-07-31T01:28:33.980Z,100828.88
2022-07-31T01:31:25.461Z,100824.41
2022-07-31T01:34:02.596Z,100825.00
2022-07-31T01:36:34.627Z,100820.53
2022-07-31T01:39:02.417Z,100828.19
2022-07-31T01:41:34.409Z,100834.97
2022-07-31T01:44:03.339Z,100837.44
2022-07-31T01:46:37.306Z,100842.59
2022-07-31T01:49:09.708Z,100840.28
2022-07-31T01:51:39.045Z,100836.72
2022-07-31T01:54:06.182Z,100838.94
2022-07-31T01:56:34.617Z,100839.19
2022-07-31T01:59:02.308Z,100849.59
2022-07-31T02:01:30.195Z,100839.31
2022-07-31T02:04:00.654Z,100847.38
2022-07-31T02:06:28.321Z,100852.69
2022-07-31T02:08:56.325Z,100857.13
2022-07-31T02:11:23.797Z,100846.75
2022-07-31T02:13:53.375Z,100843.28
2022-07-31T02:16:21.238Z,100848.59
2022-07-31T02:18:51.117Z,100850.84
2022-07-31T02:21:17.727Z,100850.84
2022-07-31T02:23:44.316Z,100857.47
2022-07-31T02:26:11.824Z,100856.31
2022-07-31T02:28:41.927Z,100846.44
2022-07-31T02:31:11.836Z,100842.72
2022-07-31T02:33:41.737Z,100841.94
2022-07-31T02:36:09.581Z,100847.81
2022-07-31T02:38:37.349Z,100849.63
2022-07-31T02:41:05.006Z,100842.91
2022-07-31T02:43:33.268Z,100839.41
2022-07-31T02:46:00.546Z,100836.63
2022-07-31T02:48:27.442Z,100834.78
2022-07-31T02:50:54.619Z,100838.44
2022-07-31T02:53:21.765Z,100835.00
2022-07-31T02:55:49.498Z,100827.50
2022-07-31T02:58:16.138Z,100837.34
2022-07-31T03:00:42.846Z,100838.63
2022-07-31T03:03:09.370Z,100839.38
2022-07-31T03:05:35.828Z,100837.59
2022-07-31T03:08:02.320Z,100839.38
2022-07-31T03:10:28.788Z,100838.03
2022-07-31T03:12:56.016Z,100837.91
2022-07-31T03:15:25.530Z,100837.50
2022-07-31T03:17:53.639Z,100833.47
2022-07-31T03:20:21.149Z,100836.84
2022-07-31T03:22:48.873Z,100834.09
2022-07-31T03:25:21.476Z,100836.28
2022-07-31T03:27:55.621Z,100837.47
2022-07-31T03:30:26.855Z,100843.44
2022-07-31T03:32:57.031Z,100834.16
2022-07-31T03:35:24.833Z,100839.09
2022-07-31T03:37:51.855Z,100837.28
2022-07-31T03:40:18.367Z,100840.72
2022-07-31T03:42:46.117Z,100845.91
2022-07-31T03:45:13.530Z,100839.78
2022-07-31T03:47:40.320Z,100851.75
2022-07-31T03:50:08.053Z,100846.63
2022-07-31T03:52:35.468Z,100841.22
2022-07-31T03:55:02.214Z,100847.06
2022-07-31T03:57:31.296Z,100850.44
2022-07-31T04:00:00.745Z,100845.84
2022-07-31T04:02:28.390Z,100847.63
2022-07-31T04:04:55.544Z,100844.78
2022-07-31T04:07:22.029Z,100839.69
2022-07-31T04:09:48.876Z,100842.41
2022-07-31T04:12:15.814Z,100848.25
2022-07-31T04:14:42.471Z,100850.88
2022-07-31T04:17:09.337Z,100856.91
2022-07-31T04:19:36.150Z,100858.72
2022-07-31T04:22:03.095Z,100854.69
2022-07-31T04:24:29.821Z,100863.03
2022-07-31T04:26:56.969Z,100869.75
2022-07-31T04:29:24.431Z,100858.09
2022-07-31T04:31:50.973Z,100862.44
2022-07-31T04:34:17.464Z,100869.00
2022-07-31T04:36:43.946Z,100867.66
2022-07-31T04:39:10.522Z,100874.91
2022-07-31T04:41:37.020Z,100871.47
2022-07-31T04:44:03.615Z,100876.50
2022-07-31T04:46:30.098Z,100872.56
2022-07-31T04:48:56.784Z,100861.25
2022-07-31T04:51:24.303Z,100874.25
2022-07-31T04:53:51.420Z,100863.03
2022-07-31T04:56:37.355Z,100873.97
2022-07-31T04:59:07.223Z,100876.06
2022-07-31T05:01:34.207Z,100877.63
2022-07-31T05:04:01.101Z,100883.91
2022-07-31T05:06:45.081Z,100882.13
2022-07-31T05:09:18.767Z,100881.63
2022-07-31T05:11:47.203Z,100882.56
2022-07-31T05:14:16.603Z,100879.13
2022-07-31T05:16:44.077Z,100876.19
2022-07-31T05:19:14.582Z,100880.91
2022-07-31T05:21:53.011Z,100883.06
2022-07-31T05:24:22.532Z,100881.06
2022-07-31T05:26:59.209Z,100889.06
2022-07-31T05:29:25.858Z,100894.56
2022-07-31T05:31:59.950Z,100891.00
2022-07-31T05:34:30.145Z,100895.44
2022-07-31T05:36:58.586Z,100893.34
2022-07-31T05:39:25.265Z,100892.88
2022-07-31T05:41:52.755Z,100890.38
2022-07-31T05:44:19.398Z,100881.16
2022-07-31T05:46:45.882Z,100886.38
2022-07-31T05:49:12.646Z,100888.53
2022-07-31T05:51:42.397Z,100896.78
2022-07-31T05:54:08.858Z,100894.34
2022-07-31T05:56:35.404Z,100890.56
2022-07-31T05:59:01.832Z,100890.88
2022-07-31T06:01:28.437Z,100886.38
2022-07-31T06:03:55.009Z,100887.19
2022-07-31T06:06:21.445Z,100892.53
2022-07-31T06:08:47.982Z,100887.28
2022-07-31T06:11:14.454Z,100896.78
2022-07-31T06:13:43.249Z,100898.72
2022-07-31T06:16:13.949Z,100892.63
2022-07-31T06:18:40.857Z,100896.09
2022-07-31T06:21:07.351Z,100890.00
2022-07-31T06:23:33.946Z,100889.03
2022-07-31T06:26:00.814Z,100891.03
2022-07-31T06:28:47.552Z,100893.09
2022-07-31T06:31:19.345Z,100888.72
2022-07-31T06:33:48.008Z,100892.31
2022-07-31T06:36:14.814Z,100891.84
2022-07-31T06:38:41.324Z,100889.22
2022-07-31T06:41:07.850Z,100886.19
2022-07-31T06:43:34.314Z,100884.81
2022-07-31T06:46:00.760Z,100889.53
2022-07-31T06:48:27.257Z,100886.94
2022-07-31T06:51:14.561Z,100890.69
2022-07-31T06:53:41.421Z,100891.75
2022-07-31T06:56:07.877Z,100895.44
2022-07-31T06:58:34.346Z,100896.69
2022-07-31T07:01:00.817Z,100892.66
2022-07-31T07:03:27.281Z,100909.97
2022-07-31T07:05:53.746Z,100901.38
2022-07-31T07:08:20.261Z,100900.69
2022-07-31T07:10:46.762Z,100902.84
2022-07-31T07:13:13.242Z,100902.84
2022-07-31T07:15:39.723Z,100903.63
2022-07-31T07:18:06.898Z,100903.66
2022-07-31T07:20:33.839Z,100904.50
2022-07-31T07:23:00.279Z,100911.09
2022-07-31T07:25:26.758Z,100906.06
2022-07-31T07:27:53.767Z,100918.72
2022-07-31T07:30:20.361Z,100910.66
2022-07-31T07:32:46.851Z,100913.75
2022-07-31T07:35:13.651Z,100914.28
2022-07-31T07:37:41.379Z,100916.09
2022-07-31T07:40:09.049Z,100913.66
2022-07-31T07:42:35.528Z,100917.94
2022-07-31T07:45:02.242Z,100916.66
2022-07-31T07:47:54.158Z,100915.56
2022-07-31T07:50:20.275Z,100913.22
2022-07-31T07:52:47.413Z,100912.91
2022-07-31T07:55:13.937Z,100899.59
2022-07-31T07:57:43.501Z,100900.25
2022-07-31T08:00:11.487Z,100897.72
2022-07-31T08:02:38.420Z,100901.38
2022-07-31T08:05:06.937Z,100902.34
2022-07-31T08:07:42.167Z,100898.59
2022-07-31T08:10:10.104Z,100894.94
2022-07-31T08:12:36.765Z,100892.25
2022-07-31T08:15:04.410Z,100894.06
2022-07-31T08:17:31.070Z,100893.50
2022-07-31T08:19:57.679Z,100899.09
2022-07-31T08:22:24.177Z,100897.41
2022-07-31T08:24:50.637Z,100898.34
2022-07-31T08:27:39.256Z,100904.00
2022-07-31T08:30:07.875Z,100896.38
2022-07-31T08:32:34.449Z,100899.59
2022-07-31T08:35:00.943Z,100899.94
2022-07-31T08:37:59.319Z,100909.78
2022-07-31T08:40:14.005Z,100894.97
2022-07-31T08:42:40.562Z,100894.47
2022-07-31T08:45:08.326Z,100904.78
2022-07-31T08:47:36.075Z,100900.06
2022-07-31T08:50:05.528Z,100895.09
2022-07-31T08:52:34.638Z,100905.31
2022-07-31T08:55:06.674Z,100905.66
2022-07-31T08:57:33.650Z,100901.53
2022-07-31T09:00:00.115Z,100903.38
2022-07-31T09:02:26.633Z,100898.22
2022-07-31T09:04:53.188Z,100903.97
2022-07-31T09:07:19.707Z,100908.50
2022-07-31T09:09:51.472Z,100903.63
2022-07-31T09:12:34.400Z,100903.56
2022-07-31T09:15:01.417Z,100898.47
2022-07-31T09:17:35.827Z,100895.69
2022-07-31T09:20:04.155Z,100893.00
2022-07-31T09:22:31.258Z,100893.28
2022-07-31T09:25:11.868Z,100896.22
2022-07-31T09:27:38.844Z,100896.50
2022-07-31T09:30:06.254Z,100882.09
2022-07-31T09:32:32.712Z,100884.56
2022-07-31T09:35:13.136Z,100880.00
2022-07-31T09:37:40.180Z,100885.41
2022-07-31T09:40:08.228Z,100876.63
2022-07-31T09:42:55.457Z,100865.41
2022-07-31T09:45:23.686Z,100878.69
2022-07-31T09:48:15.134Z,100872.72
2022-07-31T09:50:59.796Z,100872.84
2022-07-31T09:53:27.092Z,100874.84
2022-07-31T09:55:56.085Z,100867.97
2022-07-31T09:58:23.725Z,100862.91
2022-07-31T10:00:52.619Z,100863.88
2022-07-31T10:03:20.260Z,100857.88
2022-07-31T10:05:47.913Z,100862.16
2022-07-31T10:08:17.253Z,100858.16
2022-07-31T10:10:45.090Z,100860.16
2022-07-31T10:13:15.491Z,100855.19
2022-07-31T10:15:42.650Z,100859.00
2022-07-31T10:18:09.940Z,100857.56
2022-07-31T10:20:37.691Z,100853.41
2022-07-31T10:23:14.357Z,100863.94
2022-07-31T10:25:53.263Z,100847.13
2022-07-31T10:28:21.904Z,100849.81
2022-07-31T10:30:49.292Z,100846.34
2022-07-31T10:33:41.912Z,100847.97
2022-07-31T10:36:11.266Z,100848.00
2022-07-31T10:38:47.815Z,100835.78
2022-07-31T10:41:41.982Z,100842.00
2022-07-31T10:44:13.580Z,100838.75
2022-07-31T10:46:40.195Z,100839.81
2022-07-31T10:49:08.729Z,100833.63
2022-07-31T10:51:46.457Z,100835.44
2022-07-31T10:54:14.197Z,100835.56
2022-07-31T10:56:45.205Z,100833.75
2022-07-31T10:59:12.234Z,100823.16
2022-07-31T11:01:55.035Z,100822.13
2022-07-31T11:04:31.869Z,100817.78
2022-07-31T11:06:59.122Z,100820.38
2022-07-31T11:09:27.937Z,100811.66
2022-07-31T11:11:55.450Z,100812.78
2022-07-31T11:14:32.893Z,100811.94
2022-07-31T11:16:59.493Z,100808.38
2022-07-31T11:19:36.577Z,100801.13
2022-07-31T11:22:32.224Z,100796.91
2022-07-31T11:25:00.692Z,100796.28
2022-07-31T11:27:34.141Z,100798.09
2022-07-31T11:30:13.142Z,100791.84
2022-07-31T11:32:41.007Z,100782.97
2022-07-31T11:35:08.218Z,100786.34
2022-07-31T11:37:46.222Z,100788.22
2022-07-31T11:40:22.482Z,100782.97
2022-07-31T11:43:23.229Z,100776.94
2022-07-31T11:45:52.755Z,100782.28
2022-07-31T11:48:21.171Z,100778.72
2022-07-31T11:50:49.753Z,100780.50
2022-07-31T11:53:17.620Z,100778.59
2022-07-31T11:55:55.834Z,100775.13
2022-07-31T11:58:24.280Z,100772.56
2022-07-31T12:00:52.105Z,100767.28
2022-07-31T12:03:21.193Z,100766.41
2022-07-31T12:05:50.386Z,100760.97
2022-07-31T12:08:17.013Z,100764.28
2022-07-31T12:10:43.956Z,100763.50
2022-07-31T12:13:15.759Z,100752.16
2022-07-31T12:16:00.698Z,100750.47
2022-07-31T12:18:29.183Z,100751.38
2022-07-31T12:20:59.815Z,100739.00
2022-07-31T12:23:40.619Z,100745.28
2022-07-31T12:26:10.635Z,100742.56
2022-07-31T12:28:37.633Z,100746.13
2022-07-31T12:31:04.582Z,100748.75
2022-07-31T12:33:40.549Z,100738.13
2022-07-31T12:36:18.602Z,100738.16
2022-07-31T12:38:48.888Z,100733.75
2022-07-31T12:41:16.288Z,100733.78
2022-07-31T12:43:51.859Z,100732.91
2022-07-31T12:46:36.295Z,100731.13
2022-07-31T12:49:04.444Z,100725.75
2022-07-31T12:51:45.181Z,100725.69
2022-07-31T12:54:14.880Z,100723.06
2022-07-31T12:56:42.308Z,100721.38
2022-07-31T12:59:09.647Z,100716.03
2022-07-31T13:01:36.853Z,100709.75
2022-07-31T13:04:05.583Z,100708.78
2022-07-31T13:06:34.863Z,100707.97
2022-07-31T13:09:01.398Z,100711.63
2022-07-31T13:11:46.427Z,100706.31
2022-07-31T13:14:19.591Z,100705.44
2022-07-31T13:16:47.321Z,100703.63
2022-07-31T13:19:15.011Z,100700.00
2022-07-31T13:21:49.274Z,100694.66
2022-07-31T13:24:20.611Z,100701.78
2022-07-31T13:26:48.397Z,100700.06
2022-07-31T13:29:15.773Z,100690.34
2022-07-31T13:47:15.202Z,100674.34
2022-07-31T13:49:41.847Z,100662.81
2022-07-31T13:52:08.556Z,100668.09
2022-07-31T13:54:35.079Z,100669.84
2022-07-31T13:57:01.671Z,100662.72
2022-07-31T13:59:29.271Z,100665.41
2022-07-31T14:02:13.503Z,100660.13
2022-07-31T14:04:40.459Z,100662.78
2022-07-31T14:07:08.150Z,100653.03
2022-07-31T14:09:35.899Z,100660.09
2022-07-31T14:12:03.633Z,100657.41
2022-07-31T14:14:30.913Z,100655.66
2022-07-31T14:16:57.456Z,100653.88
2022-07-31T14:19:23.938Z,100645.03
2022-07-31T14:21:56.909Z,100642.38
2022-07-31T14:24:24.888Z,100638.88
2022-07-31T14:26:51.627Z,100641.50
2022-07-31T14:29:18.160Z,100633.50
2022-07-31T14:31:44.622Z,100635.31
2022-07-31T14:34:11.144Z,100635.22
2022-07-31T14:36:37.828Z,100628.16
2022-07-31T14:39:04.363Z,100633.50
2022-07-31T14:41:30.875Z,100631.75
2022-07-31T14:43:57.468Z,100626.41
2022-07-31T14:46:23.970Z,100623.78
2022-07-31T14:48:50.649Z,100620.19
2022-07-31T14:51:18.581Z,100610.53
2022-07-31T14:53:46.163Z,100614.06
2022-07-31T14:56:12.777Z,100614.06
2022-07-31T14:58:58.083Z,100604.25
2022-07-31T15:01:30.769Z,100598.03
2022-07-31T15:03:57.866Z,100601.59
2022-07-31T15:06:40.035Z,100599.81
2022-07-31T15:09:12.127Z,100609.53
2022-07-31T15:12:00.038Z,100600.72
2022-07-31T15:14:28.505Z,100596.31
2022-07-31T15:16:54.959Z,100593.66
2022-07-31T15:19:21.472Z,100589.22
2022-07-31T15:22:11.242Z,100592.75
2022-07-31T15:24:34.496Z,100589.19
2022-07-31T15:27:01.022Z,100594.53
2022-07-31T15:30:05.765Z,100580.38
2022-07-31T15:32:14.097Z,100581.22
2022-07-31T15:34:40.601Z,100589.22
2022-07-31T15:37:07.661Z,100582.16
2022-07-31T15:39:34.447Z,100575.94
2022-07-31T15:42:01.988Z,100577.69
2022-07-31T15:44:29.009Z,100565.28
2022-07-31T15:46:55.670Z,100573.25
2022-07-31T15:49:23.250Z,100564.41
2022-07-31T15:51:49.781Z,100569.72
2022-07-31T15:54:16.370Z,100560.84
2022-07-31T15:56:42.938Z,100561.75
2022-07-31T15:59:09.421Z,100557.28
2022-07-31T16:01:37.573Z,100555.53
2022-07-31T16:04:16.329Z,100542.19
2022-07-31T16:06:49.084Z,100535.09
2022-07-31T16:09:17.144Z,100540.41
2022-07-31T16:12:03.509Z,100536.84
2022-07-31T16:14:30.217Z,100532.44
2022-07-31T16:16:57.516Z,100530.66
2022-07-31T16:19:25.130Z,100520.91
2022-07-31T16:21:53.057Z,100516.47
2022-07-31T16:24:22.322Z,100520.03
2022-07-31T16:26:49.794Z,100516.47
2022-07-31T16:29:17.749Z,100505.81
2022-07-31T16:32:04.331Z,100511.16
2022-07-31T16:34:30.927Z,100508.47
2022-07-31T16:36:57.562Z,100508.50
2022-07-31T16:39:24.227Z,100511.16
2022-07-31T16:41:54.248Z,100495.22
2022-07-31T16:44:21.665Z,100502.28
2022-07-31T16:46:52.734Z,100496.09
2022-07-31T16:49:28.255Z,100498.72
2022-07-31T16:52:01.874Z,100495.19
2022-07-31T16:54:28.690Z,100491.63
2022-07-31T16:56:55.267Z,100491.63
2022-07-31T16:59:21.781Z,100487.22
2022-07-31T17:01:59.232Z,100500.53
2022-07-31T17:04:27.428Z,100493.44
2022-07-31T17:06:54.687Z,100495.19
2022-07-31T17:09:21.924Z,100495.19
2022-07-31T17:11:50.868Z,100505.84
2022-07-31T17:14:19.497Z,100504.94
2022-07-31T17:16:48.806Z,100505.81
2022-07-31T17:19:42.301Z,100503.16
2022-07-31T17:22:07.861Z,100509.38
2022-07-31T17:24:37.139Z,100510.25
2022-07-31T17:27:06.914Z,100507.56
2022-07-31T17:29:33.839Z,100510.22
2022-07-31T17:32:00.415Z,100512.88
2022-07-31T17:34:28.010Z,100512.00
2022-07-31T17:36:54.790Z,100512.00
2022-07-31T17:39:21.316Z,100512.88
2022-07-31T17:41:47.915Z,100519.09
2022-07-31T17:44:14.838Z,100518.13
2022-07-31T17:46:43.886Z,100527.00
2022-07-31T17:49:19.513Z,100523.44
2022-07-31T17:51:57.663Z,100530.50
2022-07-31T17:54:27.772Z,100525.19
2022-07-31T17:56:54.553Z,100532.25
2022-07-31T17:59:21.160Z,100534.91
2022-07-31T18:01:51.768Z,100532.22
2022-07-31T18:04:19.308Z,100531.31
2022-07-31T18:06:45.791Z,100539.28
2022-07-31T18:09:12.278Z,100544.59
2022-07-31T18:11:38.761Z,100537.47
2022-07-31T18:14:05.252Z,100539.25
2022-07-31T18:16:31.848Z,100533.88
2022-07-31T18:18:58.393Z,100536.50
2022-07-31T18:21:24.911Z,100538.22
2022-07-31T18:23:51.427Z,100541.72
2022-07-31T18:26:17.897Z,100541.69
2022-07-31T18:28:44.429Z,100552.25
2022-07-31T18:31:30.780Z,100546.59
2022-07-31T18:33:57.444Z,100548.00
2022-07-31T18:36:23.955Z,100560.97
2022-07-31T18:38:52.025Z,100559.91
2022-07-31T18:41:19.008Z,100550.78
2022-07-31T18:43:45.572Z,100555.03
2022-07-31T18:46:12.139Z,100554.94
2022-07-31T18:48:38.672Z,100554.66
2022-07-31T18:51:05.763Z,100556.84
2022-07-31T18:53:33.512Z,100563.72
2022-07-31T18:56:00.021Z,100566.97
2022-07-31T18:58:26.811Z,100575.56
2022-07-31T19:00:55.101Z,100583.53
2022-07-31T19:03:23.353Z,100577.19
2022-07-31T19:05:52.211Z,100568.94
2022-07-31T19:08:19.430Z,100577.75
2022-07-31T19:10:45.984Z,100582.38
2022-07-31T19:13:17.242Z,100586.06
2022-07-31T19:15:47.472Z,100586.91
2022-07-31T19:18:14.249Z,100587.50
2022-07-31T19:20:59.921Z,100581.28
2022-07-31T19:23:31.577Z,100589.28
2022-07-31T19:26:03.507Z,100594.56
2022-07-31T19:28:34.897Z,100595.34
2022-07-31T19:31:01.906Z,100606.66
2022-07-31T19:33:28.586Z,100605.81
2022-07-31T19:36:00.710Z,100606.56
2022-07-31T19:38:29.228Z,100605.63
2022-07-31T19:40:55.789Z,100609.06
2022-07-31T19:43:22.317Z,100613.44
2022-07-31T19:46:01.946Z,100617.03
2022-07-31T19:48:36.624Z,100632.16
2022-07-31T19:51:03.733Z,100622.38
2022-07-31T19:53:30.335Z,100621.41
2022-07-31T19:55:57.393Z,100625.75
2022-07-31T19:58:23.890Z,100628.41
2022-07-31T20:00:50.521Z,100627.59
2022-07-31T20:03:17.174Z,100636.47
2022-07-31T20:05:43.723Z,100632.91
2022-07-31T20:08:10.450Z,100638.03
2022-07-31T20:10:37.228Z,100642.53
2022-07-31T20:13:04.148Z,100638.13
2022-07-31T20:15:51.490Z,100636.28
2022-07-31T20:18:25.197Z,100645.72
2022-07-31T20:21:08.557Z,100646.22
2022-07-31T20:23:38.532Z,100650.03
2022-07-31T20:26:06.766Z,100654.13
2022-07-31T20:28:33.313Z,100653.00
2022-07-31T20:30:59.870Z,100661.72
2022-07-31T20:33:26.383Z,100656.28
2022-07-31T20:35:53.060Z,100660.81
2022-07-31T20:38:23.668Z,100657.41
2022-07-31T20:40:53.548Z,100658.28
2022-07-31T20:43:27.026Z,100658.22
2022-07-31T20:45:57.264Z,100656.44
2022-07-31T20:48:27.029Z,100658.22
2022-07-31T20:50:53.575Z,100659.19
2022-07-31T20:53:21.553Z,100658.44
2022-07-31T20:55:49.928Z,100658.28
2022-07-31T20:58:21.680Z,100661.53
2022-07-31T21:00:49.623Z,100664.88
2022-07-31T21:03:17.537Z,100661.34
2022-07-31T21:05:45.216Z,100667.56
2022-07-31T21:08:13.295Z,100657.94
2022-07-31T21:10:39.885Z,100664.22
2022-07-31T21:13:06.406Z,100666.91
2022-07-31T21:15:42.218Z,100664.97
2022-07-31T21:18:15.522Z,100664.81
2022-07-31T21:20:51.550Z,100665.13
2022-07-31T21:23:24.669Z,100660.69
2022-07-31T21:25:55.997Z,100663.44
2022-07-31T21:28:23.647Z,100662.91
2022-07-31T21:30:50.605Z,100668.03
2022-07-31T21:33:18.282Z,100663.69
2022-07-31T21:35:45.813Z,100667.94
2022-07-31T21:38:15.035Z,100672.19
2022-07-31T21:40:41.925Z,100674.78
2022-07-31T21:43:09.633Z,100676.59
2022-07-31T21:45:50.809Z,100669.56
2022-07-31T21:48:23.720Z,100661.72
2022-07-31T21:50:51.023Z,100676.44
2022-07-31T21:53:17.516Z,100673.00
2022-07-31T21:55:44.106Z,100673.97
2022-07-31T21:58:10.742Z,100674.09
2022-07-31T22:00:37.647Z,100667.81
2022-07-31T22:03:04.630Z,100675.88
2022-07-31T22:05:50.251Z,100676.69
2022-07-31T22:08:16.993Z,100681.09
2022-07-31T22:10:43.755Z,100685.25
2022-07-31T22:13:10.285Z,100676.97
2022-07-31T22:15:52.762Z,100676.72
2022-07-31T22:18:26.409Z,100682.81
2022-07-31T22:20:53.574Z,100683.84
2022-07-31T22:23:20.392Z,100686.38
2022-07-31T22:25:49.170Z,100688.69
2022-07-31T22:28:18.889Z,100686.94
2022-07-31T22:30:45.799Z,100687.00
2022-07-31T22:33:12.656Z,100685.31
2022-07-31T22:35:40.731Z,100695.09
2022-07-31T22:38:08.528Z,100692.72
2022-07-31T22:40:35.290Z,100692.94
2022-07-31T22:43:02.646Z,100688.84
2022-07-31T22:45:30.208Z,100698.00
2022-07-31T22:47:57.558Z,100696.63
2022-07-31T22:50:24.176Z,100693.75
2022-07-31T22:52:50.780Z,100690.38
2022-07-31T22:55:17.413Z,100695.81
2022-07-31T22:57:44.906Z,100694.13
2022-07-31T23:00:13.919Z,100693.19
2022-07-31T23:02:42.151Z,100698.88
2022-07-31T23:05:09.049Z,100701.88
2022-07-31T23:07:35.572Z,100701.94
2022-07-31T23:10:02.235Z,100700.25
2022-07-31T23:12:29.541Z,100700.75
2022-07-31T23:14:56.363Z,100700.97
2022-07-31T23:17:23.558Z,100689.72
2022-07-31T23:19:54.166Z,100691.34
2022-07-31T23:22:30.883Z,100694.16
2022-07-31T23:25:00.344Z,100687.72
2022-07-31T23:27:26.886Z,100691.06
2022-07-31T23:29:53.514Z,100691.84
2022-07-31T23:32:20.013Z,100692.06
2022-07-31T23:34:46.503Z,100697.13
2022-07-31T23:37:13.070Z,100693.94
2022-07-31T23:39:40.056Z,100694.38
2022-07-31T23:42:25.376Z,100691.00
2022-07-31T23:44:51.922Z,100688.63
2022-07-31T23:47:19.358Z,100685.94
2022-07-31T23:49:46.459Z,100682.78
2022-07-31T23:52:13.076Z,100686.03
2022-07-31T23:54:39.657Z,100691.09
2022-07-31T23:57:06.179Z,100692.53
2022-07-31T23:59:32.716Z,100684.91
